Austin Reinauer — WCX8055 — position and weather

sailwx.info

Track history (hours):
 
Tides and Currents Weather Stations Pressure Air Temp Water Temp Dewpoint Dewpoint Depression Visibility Wind Speed Wind Dir Waves Ship Positions

Austin Reinauer

Owner: REINAUER TRANSPORTATION CO, LP, STATEN ISLAND, NY. More information available from US FCC via Universal Licensing System and Coast Guard Vessel Documentation Center.

Last reported at 2016-Dec-04 13:25 UTC. Time now 2016-Dec-05 16:32 UTC.
Position N 40°57' W 073°34'.

Length 33 m; draft 6.7 m.

Type: Tug. MMSI: 366739920.

Date/timePositionNaut miles runAvg speedWind from/ knotsBaromVisibWave heightAir tempDewpointWater temp
2016-Dec-04 13:25N 40°57' W 073°34'8 9.4
2016-Dec-04 12:32N 40°53' W 073°44'8 8.1
2016-Dec-04 11:33N 40°48' W 073°52'6 6.3
2016-Dec-04 10:33N 40°43' W 073°58'6 6.1
2016-Dec-04 09:32N 40°38' W 074°03'0 0.0
2016-Dec-04 08:32N 40°39' W 074°03'0 0.1
2016-Dec-04 07:32N 40°39' W 074°03'6 6.2
2016-Dec-04 06:33N 40°39' W 074°11'3 2.5
2016-Dec-04 05:22N 40°36' W 074°12'0 0.1
2016-Dec-04 04:32N 40°36' W 074°12'0 0.2
2016-Dec-04 03:31N 40°36' W 074°12'0 0.0
2016-Dec-04 01:24N 40°36' W 074°12'0 0.0
2016-Dec-04 00:30N 40°36' W 074°12'0 0.0
2016-Dec-03 22:29N 40°36' W 074°12'0 0.0
2016-Dec-03 21:29N 40°36' W 074°12'0 0.0
2016-Dec-03 20:29N 40°36' W 074°12'0 0.0
2016-Dec-03 16:33N 40°36' W 074°12'0 0.1
2016-Dec-03 15:32N 40°36' W 074°12'0 0.0
2016-Dec-03 14:32N 40°36' W 074°12'0 0.0
2016-Dec-03 13:29N 40°36' W 074°12'0 0.0
2016-Dec-03 12:29N 40°36' W 074°12'0 0.0
2016-Dec-03 11:23N 40°36' W 074°12'2 2.8
2016-Dec-03 10:33N 40°38' W 074°12'3 3.1
2016-Dec-03 09:31N 40°38' W 074°08'0 0.0
2016-Dec-03 08:31N 40°38' W 074°08'0 0.0
2016-Dec-03 07:31N 40°38' W 074°08'0 0.0
2016-Dec-03 06:31N 40°38' W 074°08'0 0.5
2016-Dec-03 05:33N 40°39' W 074°08'4 3.7
2016-Dec-03 04:31N 40°36' W 074°12'0 0.0
2016-Dec-03 03:33N 40°36' W 074°12'1 1.0
2016-Dec-03 02:33N 40°37' W 074°12'8 7.9
2016-Dec-03 01:34N 40°40' W 074°03'8 7.5
2016-Dec-03 00:32N 40°46' W 073°57'7 6.8
2016-Dec-02 23:26N 40°48' W 073°47'165 6.5
2016-Dec-01 22:10N 42°01' W 070°30'610.5
2016-Dec-01 21:33N 42°07' W 070°31'1010.2
2016-Dec-01 20:34N 42°15' W 070°39'1110.6
2016-Dec-01 19:33N 42°23' W 070°50'9 9.1
2016-Dec-01 18:34N 42°21' W 071°02'2 2.4
2016-Dec-01 17:33N 42°23' W 071°03'0 0.0
2016-Dec-01 16:28N 42°23' W 071°03'0 0.0
2016-Dec-01 15:28N 42°23' W 071°03'0 0.0
2016-Dec-01 14:34N 42°23' W 071°03'0 0.0
2016-Dec-01 13:33N 42°23' W 071°03'0 0.0
2016-Dec-01 12:33N 42°23' W 071°03'0 0.0
2016-Dec-01 11:33N 42°23' W 071°03'0 0.0
2016-Dec-01 10:33N 42°23' W 071°03'0 0.0
2016-Dec-01 09:33N 42°23' W 071°03'0 0.0
2016-Dec-01 08:33N 42°23' W 071°03'0 0.0
2016-Dec-01 07:33N 42°23' W 071°03'0 0.0
2016-Dec-01 06:33N 42°23' W 071°03'0 0.0
2016-Dec-01 05:33N 42°23' W 071°03'0 0.0
2016-Dec-01 04:33N 42°23' W 071°03'0 0.0
2016-Dec-01 03:33N 42°23' W 071°03'0 0.0
2016-Dec-01 02:33N 42°23' W 071°03'1 0.8
2016-Dec-01 01:34N 42°23' W 071°03'6 5.5
2016-Dec-01 00:33N 42°22' W 070°55'9 9.1
2016-Nov-30 23:33N 42°19' W 070°44'1110.3
2016-Nov-30 22:32N 42°11' W 070°34'58 5.7
2016-Nov-30 12:14N 41°26' W 071°22'5 8.0
2016-Nov-30 11:33N 41°31' W 071°21'9 9.3
2016-Nov-30 10:33N 41°40' W 071°19'7 7.0
2016-Nov-30 09:30N 41°47' W 071°22'0 0.0
2016-Nov-30 08:33N 41°47' W 071°22'0 0.0
2016-Nov-30 07:33N 41°47' W 071°22'0 0.0
2016-Nov-30 06:33N 41°47' W 071°22'0 0.0
2016-Nov-30 05:33N 41°47' W 071°22'0 0.0
2016-Nov-30 04:34N 41°47' W 071°22'0 0.0
2016-Nov-30 03:34N 41°47' W 071°22'0 0.0
2016-Nov-30 02:29N 41°47' W 071°22'0 0.0
2016-Nov-29 23:11N 41°47' W 071°22'0 0.1
2016-Nov-29 18:25N 41°47' W 071°23'1 0.7
2016-Nov-29 17:33N 41°47' W 071°22'110 7.6
2016-Nov-29 03:11N 40°57' W 073°33'5 8.8
2016-Nov-29 02:33N 40°54' W 073°39'8 8.3
2016-Nov-29 01:33N 40°48' W 073°47'8 8.2
2016-Nov-29 00:34N 40°46' W 073°57'6 6.1
2016-Nov-28 23:33N 40°41' W 074°02'1 1.3
2016-Nov-28 22:33N 40°40' W 074°02'0 0.3
2016-Nov-28 21:34N 40°40' W 074°03'7 6.8
2016-Nov-28 20:34N 40°38' W 074°11'1 1.1
2016-Nov-28 19:32N 40°38' W 074°12'0 0.0
2016-Nov-28 18:32N 40°38' W 074°12'0 0.0
2016-Nov-28 17:32N 40°38' W 074°12'0 0.0
2016-Nov-28 16:32N 40°38' W 074°12'0 0.0
2016-Nov-28 15:32N 40°38' W 074°12'0 0.0
2016-Nov-28 14:32N 40°38' W 074°12'0 0.0
2016-Nov-28 13:32N 40°38' W 074°12'0 0.0
2016-Nov-28 12:32N 40°38' W 074°12'0 0.0
2016-Nov-28 11:32N 40°38' W 074°12'0 0.0
2016-Nov-28 10:32N 40°38' W 074°12'0 0.0
2016-Nov-28 09:32N 40°38' W 074°12'0 0.0
2016-Nov-28 08:32N 40°38' W 074°12'0 0.0
2016-Nov-28 07:32N 40°38' W 074°12'0 0.0
2016-Nov-28 06:32N 40°38' W 074°12'0 0.0
2016-Nov-28 05:32N 40°38' W 074°12'0 0.0
2016-Nov-28 04:32N 40°38' W 074°12'0 0.0
2016-Nov-28 03:32N 40°38' W 074°12'0 0.0
2016-Nov-28 02:32N 40°38' W 074°12'0 0.0
2016-Nov-28 01:32N 40°38' W 074°12'0 0.0
2016-Nov-28 00:31N 40°38' W 074°12'0 0.0
2016-Nov-27 23:31N 40°38' W 074°12'0 0.0
2016-Nov-27 22:31N 40°38' W 074°12'0 0.0
2016-Nov-27 21:31N 40°38' W 074°12'0 0.0
2016-Nov-27 20:31N 40°38' W 074°12'0 0.0
2016-Nov-27 19:31N 40°38' W 074°12'0 0.0
2016-Nov-27 18:31N 40°38' W 074°12'0 0.0
2016-Nov-27 17:31N 40°38' W 074°12'0 0.0
2016-Nov-27 16:31N 40°38' W 074°12'0 0.0
2016-Nov-27 15:31N 40°38' W 074°12'0 0.0
2016-Nov-27 14:31N 40°38' W 074°12'0 0.0
2016-Nov-27 13:31N 40°38' W 074°12'0 0.0
2016-Nov-27 12:31N 40°38' W 074°12'0 0.0
2016-Nov-27 11:31N 40°38' W 074°12'0 0.0
2016-Nov-27 10:31N 40°38' W 074°12'0 0.0
2016-Nov-27 09:31N 40°38' W 074°12'0 0.2
2016-Nov-27 08:33N 40°38' W 074°12'7 6.6
2016-Nov-27 07:33N 40°39' W 074°03'0 0.4
2016-Nov-27 06:33N 40°38' W 074°03'2 2.4
2016-Nov-27 05:33N 40°41' W 074°02'8 7.7
2016-Nov-27 04:32N 40°47' W 073°55'7 6.5
2016-Nov-27 03:30N 40°49' W 073°47'  
2016-Nov-24 18:30N 40°55' W 073°39'9 8.7
2016-Nov-24 17:31N 40°48' W 073°47'7 7.1
2016-Nov-24 16:33N 40°47' W 073°56'3 3.0
2016-Nov-24 15:33N 40°44' W 073°58'2 2.4
2016-Nov-24 14:33N 40°42' W 073°60'3 3.0
2016-Nov-24 13:33N 40°40' W 074°02'  
Track history (hours):
 
Tides and Currents Weather Stations Pressure Air Temp Water Temp Dewpoint Dewpoint Depression Visibility Wind Speed Wind Dir Waves Ship Positions

Austin Reinauer

Owner: REINAUER TRANSPORTATION CO, LP, STATEN ISLAND, NY. More information available from US FCC via Universal Licensing System and Coast Guard Vessel Documentation Center.

Last reported at 2016-Dec-04 13:25 UTC. Time now 2016-Dec-05 16:32 UTC.
Position N 40°57' W 073°34'.

Length 33 m; draft 6.7 m.

Type: Tug. MMSI: 366739920.

Date/timePositionNaut miles runAvg speedWind from/ knotsBaromVisibWave heightAir tempDewpointWater temp
2016-Dec-04 13:25N 40°57' W 073°34'8 9.4
2016-Dec-04 12:32N 40°53' W 073°44'8 8.1
2016-Dec-04 11:33N 40°48' W 073°52'6 6.3
2016-Dec-04 10:33N 40°43' W 073°58'6 6.1
2016-Dec-04 09:32N 40°38' W 074°03'0 0.0
2016-Dec-04 08:32N 40°39' W 074°03'0 0.1
2016-Dec-04 07:32N 40°39' W 074°03'6 6.2
2016-Dec-04 06:33N 40°39' W 074°11'3 2.5
2016-Dec-04 05:22N 40°36' W 074°12'0 0.1
2016-Dec-04 04:32N 40°36' W 074°12'0 0.2
2016-Dec-04 03:31N 40°36' W 074°12'0 0.0
2016-Dec-04 01:24N 40°36' W 074°12'0 0.0
2016-Dec-04 00:30N 40°36' W 074°12'0 0.0
2016-Dec-03 22:29N 40°36' W 074°12'0 0.0
2016-Dec-03 21:29N 40°36' W 074°12'0 0.0
2016-Dec-03 20:29N 40°36' W 074°12'0 0.0
2016-Dec-03 16:33N 40°36' W 074°12'0 0.1
2016-Dec-03 15:32N 40°36' W 074°12'0 0.0
2016-Dec-03 14:32N 40°36' W 074°12'0 0.0
2016-Dec-03 13:29N 40°36' W 074°12'0 0.0
2016-Dec-03 12:29N 40°36' W 074°12'0 0.0
2016-Dec-03 11:23N 40°36' W 074°12'2 2.8
2016-Dec-03 10:33N 40°38' W 074°12'3 3.1
2016-Dec-03 09:31N 40°38' W 074°08'0 0.0
2016-Dec-03 08:31N 40°38' W 074°08'0 0.0
2016-Dec-03 07:31N 40°38' W 074°08'0 0.0
2016-Dec-03 06:31N 40°38' W 074°08'0 0.5
2016-Dec-03 05:33N 40°39' W 074°08'4 3.7
2016-Dec-03 04:31N 40°36' W 074°12'0 0.0
2016-Dec-03 03:33N 40°36' W 074°12'1 1.0
2016-Dec-03 02:33N 40°37' W 074°12'8 7.9
2016-Dec-03 01:34N 40°40' W 074°03'8 7.5
2016-Dec-03 00:32N 40°46' W 073°57'7 6.8
2016-Dec-02 23:26N 40°48' W 073°47'165 6.5
2016-Dec-01 22:10N 42°01' W 070°30'610.5
2016-Dec-01 21:33N 42°07' W 070°31'1010.2
2016-Dec-01 20:34N 42°15' W 070°39'1110.6
2016-Dec-01 19:33N 42°23' W 070°50'9 9.1
2016-Dec-01 18:34N 42°21' W 071°02'2 2.4
2016-Dec-01 17:33N 42°23' W 071°03'0 0.0
2016-Dec-01 16:28N 42°23' W 071°03'0 0.0
2016-Dec-01 15:28N 42°23' W 071°03'0 0.0
2016-Dec-01 14:34N 42°23' W 071°03'0 0.0
2016-Dec-01 13:33N 42°23' W 071°03'0 0.0
2016-Dec-01 12:33N 42°23' W 071°03'0 0.0
2016-Dec-01 11:33N 42°23' W 071°03'0 0.0
2016-Dec-01 10:33N 42°23' W 071°03'0 0.0
2016-Dec-01 09:33N 42°23' W 071°03'0 0.0
2016-Dec-01 08:33N 42°23' W 071°03'0 0.0
2016-Dec-01 07:33N 42°23' W 071°03'0 0.0
2016-Dec-01 06:33N 42°23' W 071°03'0 0.0
2016-Dec-01 05:33N 42°23' W 071°03'0 0.0
2016-Dec-01 04:33N 42°23' W 071°03'0 0.0
2016-Dec-01 03:33N 42°23' W 071°03'0 0.0
2016-Dec-01 02:33N 42°23' W 071°03'1 0.8
2016-Dec-01 01:34N 42°23' W 071°03'6 5.5
2016-Dec-01 00:33N 42°22' W 070°55'9 9.1
2016-Nov-30 23:33N 42°19' W 070°44'1110.3
2016-Nov-30 22:32N 42°11' W 070°34'58 5.7
2016-Nov-30 12:14N 41°26' W 071°22'5 8.0
2016-Nov-30 11:33N 41°31' W 071°21'9 9.3
2016-Nov-30 10:33N 41°40' W 071°19'7 7.0
2016-Nov-30 09:30N 41°47' W 071°22'0 0.0
2016-Nov-30 08:33N 41°47' W 071°22'0 0.0
2016-Nov-30 07:33N 41°47' W 071°22'0 0.0
2016-Nov-30 06:33N 41°47' W 071°22'0 0.0
2016-Nov-30 05:33N 41°47' W 071°22'0 0.0
2016-Nov-30 04:34N 41°47' W 071°22'0 0.0
2016-Nov-30 03:34N 41°47' W 071°22'0 0.0
2016-Nov-30 02:29N 41°47' W 071°22'0 0.0
2016-Nov-29 23:11N 41°47' W 071°22'0 0.1
2016-Nov-29 18:25N 41°47' W 071°23'1 0.7
2016-Nov-29 17:33N 41°47' W 071°22'110 7.6
2016-Nov-29 03:11N 40°57' W 073°33'5 8.8
2016-Nov-29 02:33N 40°54' W 073°39'8 8.3
2016-Nov-29 01:33N 40°48' W 073°47'8 8.2
2016-Nov-29 00:34N 40°46' W 073°57'6 6.1
2016-Nov-28 23:33N 40°41' W 074°02'1 1.3
2016-Nov-28 22:33N 40°40' W 074°02'0 0.3
2016-Nov-28 21:34N 40°40' W 074°03'7 6.8
2016-Nov-28 20:34N 40°38' W 074°11'1 1.1
2016-Nov-28 19:32N 40°38' W 074°12'0 0.0
2016-Nov-28 18:32N 40°38' W 074°12'0 0.0
2016-Nov-28 17:32N 40°38' W 074°12'0 0.0
2016-Nov-28 16:32N 40°38' W 074°12'0 0.0
2016-Nov-28 15:32N 40°38' W 074°12'0 0.0
2016-Nov-28 14:32N 40°38' W 074°12'0 0.0
2016-Nov-28 13:32N 40°38' W 074°12'0 0.0
2016-Nov-28 12:32N 40°38' W 074°12'0 0.0
2016-Nov-28 11:32N 40°38' W 074°12'0 0.0
2016-Nov-28 10:32N 40°38' W 074°12'0 0.0
2016-Nov-28 09:32N 40°38' W 074°12'0 0.0
2016-Nov-28 08:32N 40°38' W 074°12'0 0.0
2016-Nov-28 07:32N 40°38' W 074°12'0 0.0
2016-Nov-28 06:32N 40°38' W 074°12'0 0.0
2016-Nov-28 05:32N 40°38' W 074°12'0 0.0
2016-Nov-28 04:32N 40°38' W 074°12'0 0.0
2016-Nov-28 03:32N 40°38' W 074°12'0 0.0
2016-Nov-28 02:32N 40°38' W 074°12'0 0.0
2016-Nov-28 01:32N 40°38' W 074°12'0 0.0
2016-Nov-28 00:31N 40°38' W 074°12'0 0.0
2016-Nov-27 23:31N 40°38' W 074°12'0 0.0
2016-Nov-27 22:31N 40°38' W 074°12'0 0.0
2016-Nov-27 21:31N 40°38' W 074°12'0 0.0
2016-Nov-27 20:31N 40°38' W 074°12'0 0.0
2016-Nov-27 19:31N 40°38' W 074°12'0 0.0
2016-Nov-27 18:31N 40°38' W 074°12'0 0.0
2016-Nov-27 17:31N 40°38' W 074°12'0 0.0
2016-Nov-27 16:31N 40°38' W 074°12'0 0.0
2016-Nov-27 15:31N 40°38' W 074°12'0 0.0
2016-Nov-27 14:31N 40°38' W 074°12'0 0.0
2016-Nov-27 13:31N 40°38' W 074°12'0 0.0
2016-Nov-27 12:31N 40°38' W 074°12'0 0.0
2016-Nov-27 11:31N 40°38' W 074°12'0 0.0
2016-Nov-27 10:31N 40°38' W 074°12'0 0.0
2016-Nov-27 09:31N 40°38' W 074°12'0 0.2
2016-Nov-27 08:33N 40°38' W 074°12'7 6.6
2016-Nov-27 07:33N 40°39' W 074°03'0 0.4
2016-Nov-27 06:33N 40°38' W 074°03'2 2.4
2016-Nov-27 05:33N 40°41' W 074°02'8 7.7
2016-Nov-27 04:32N 40°47' W 073°55'7 6.5
2016-Nov-27 03:30N 40°49' W 073°47'  
2016-Nov-24 18:30N 40°55' W 073°39'9 8.7
2016-Nov-24 17:31N 40°48' W 073°47'7 7.1
2016-Nov-24 16:33N 40°47' W 073°56'3 3.0
2016-Nov-24 15:33N 40°44' W 073°58'2 2.4
2016-Nov-24 14:33N 40°42' W 073°60'3 3.0
2016-Nov-24 13:33N 40°40' W 074°02'  

Dump ship's entire track history